createdAt,value
2018-03-27T00:00:40.725Z,969.91
2018-03-27T00:01:40.773Z,969.91
2018-03-27T00:02:40.816Z,969.94
2018-03-27T00:03:40.857Z,969.92
2018-03-27T00:04:40.924Z,969.90
2018-03-27T00:05:40.944Z,969.90
2018-03-27T00:06:40.988Z,969.91
2018-03-27T00:07:41.031Z,969.88
2018-03-27T00:08:41.074Z,969.85
2018-03-27T00:09:41.154Z,969.86
2018-03-27T00:10:41.164Z,969.85
2018-03-27T00:11:41.212Z,969.83
2018-03-27T00:12:41.253Z,969.83
2018-03-27T00:13:41.294Z,969.83
2018-03-27T00:14:41.367Z,969.82
2018-03-27T00:15:41.407Z,969.85
2018-03-27T00:16:41.424Z,969.83
2018-03-27T00:17:41.469Z,969.78
2018-03-27T00:18:41.517Z,969.82
2018-03-27T00:19:41.556Z,969.79
2018-03-27T00:20:41.632Z,969.79
2018-03-27T00:21:41.644Z,969.80
2018-03-27T00:22:41.690Z,969.79
2018-03-27T00:23:41.737Z,969.81
2018-03-27T00:24:41.782Z,969.79
2018-03-27T00:25:41.844Z,969.83
2018-03-27T00:26:41.885Z,969.83
2018-03-27T00:27:41.903Z,969.83
2018-03-27T00:28:41.949Z,969.80
2018-03-27T00:29:41.993Z,969.80
2018-03-27T00:30:42.038Z,969.77
2018-03-27T00:31:42.109Z,969.80
2018-03-27T00:32:42.125Z,969.78
2018-03-27T00:33:42.169Z,969.77
2018-03-27T00:34:42.234Z,969.80
2018-03-27T00:35:42.254Z,969.80
2018-03-27T00:36:42.322Z,969.83
2018-03-27T00:37:42.350Z,969.81
2018-03-27T00:38:42.385Z,969.82
2018-03-27T00:39:42.433Z,969.81
2018-03-27T00:40:42.473Z,969.83
2018-03-27T00:41:42.552Z,969.82
2018-03-27T00:42:42.561Z,969.84
2018-03-27T00:43:42.607Z,969.80
2018-03-27T00:44:42.650Z,969.82
2018-03-27T00:45:42.693Z,969.83
2018-03-27T00:46:42.758Z,969.84
2018-03-27T00:47:42.809Z,969.83
2018-03-27T00:48:42.821Z,969.85
2018-03-27T00:49:42.866Z,969.87
2018-03-27T00:50:42.912Z,969.88
2018-03-27T00:51:42.956Z,969.86
2018-03-27T00:52:43.024Z,969.88
2018-03-27T00:53:43.041Z,969.86
2018-03-27T00:54:43.090Z,969.88
2018-03-27T00:55:43.127Z,969.86
2018-03-27T00:56:43.173Z,969.88
2018-03-27T00:57:43.248Z,969.84
2018-03-27T00:58:43.260Z,969.82
2018-03-27T00:59:43.304Z,969.85
2018-03-27T01:00:43.349Z,969.82
2018-03-27T01:01:43.390Z,969.82
2018-03-27T01:02:43.457Z,969.80
2018-03-27T01:03:43.500Z,969.77
2018-03-27T01:04:43.522Z,969.78
2018-03-27T01:05:43.569Z,969.77
2018-03-27T01:06:43.609Z,969.80
2018-03-27T01:07:43.653Z,969.83
2018-03-27T01:08:44.595Z,969.81
2018-03-27T01:09:43.741Z,969.84
2018-03-27T01:10:43.789Z,969.82
2018-03-27T01:11:43.833Z,969.84
2018-03-27T01:12:44.299Z,969.80
2018-03-27T01:13:43.949Z,969.81
2018-03-27T01:14:43.961Z,969.80
2018-03-27T01:15:44.003Z,969.82
2018-03-27T01:16:44.052Z,969.77
2018-03-27T01:17:44.094Z,969.79
2018-03-27T01:18:44.184Z,969.73
2018-03-27T01:19:44.183Z,969.77
2018-03-27T01:20:44.224Z,969.79
2018-03-27T01:21:44.270Z,969.79
2018-03-27T01:22:44.313Z,969.78
2018-03-27T01:23:44.386Z,969.72
2018-03-27T01:24:44.431Z,969.79
2018-03-27T01:25:44.442Z,969.72
2018-03-27T01:26:44.486Z,969.75
2018-03-27T01:27:44.532Z,969.75
2018-03-27T01:28:44.577Z,969.76
2018-03-27T01:29:44.659Z,969.77
2018-03-27T01:30:44.661Z,969.78
2018-03-27T01:31:44.709Z,969.77
2018-03-27T01:32:44.750Z,969.75
2018-03-27T01:33:44.795Z,969.77
2018-03-27T01:34:44.872Z,969.76
2018-03-27T01:35:44.882Z,969.76
2018-03-27T01:36:44.926Z,969.77
2018-03-27T01:37:44.969Z,969.74
2018-03-27T01:38:45.014Z,969.74
2018-03-27T01:39:45.087Z,969.77
2018-03-27T01:40:45.103Z,969.80
2018-03-27T01:41:45.147Z,969.76
2018-03-27T01:42:45.188Z,969.75
2018-03-27T01:43:45.233Z,969.81
2018-03-27T01:44:45.328Z,969.77
2018-03-27T01:45:45.322Z,969.80
2018-03-27T01:46:45.365Z,969.79
2018-03-27T01:47:45.410Z,969.83
2018-03-27T01:48:45.454Z,969.82
2018-03-27T01:49:45.536Z,969.80
2018-03-27T01:50:45.543Z,969.81
2018-03-27T01:51:45.595Z,969.82
2018-03-27T01:52:45.628Z,969.82
2018-03-27T01:53:45.673Z,969.81
2018-03-27T01:54:46.299Z,969.80
2018-03-27T01:55:45.759Z,969.81
2018-03-27T01:56:45.804Z,969.77
2018-03-27T01:57:45.849Z,969.75
2018-03-27T01:58:45.893Z,969.79
2018-03-27T01:59:45.964Z,969.79
2018-03-27T02:00:45.982Z,969.82
2018-03-27T02:01:46.024Z,969.80
2018-03-27T02:02:46.073Z,969.80
2018-03-27T02:03:46.137Z,969.81
2018-03-27T02:04:46.157Z,969.82
2018-03-27T02:05:46.230Z,969.82
2018-03-27T02:06:46.244Z,969.86
2018-03-27T02:07:46.287Z,969.84
2018-03-27T02:08:46.337Z,969.86
2018-03-27T02:09:46.400Z,969.84
2018-03-27T02:10:46.452Z,969.84
2018-03-27T02:11:46.463Z,969.85
2018-03-27T02:12:46.508Z,969.87
2018-03-27T02:13:46.554Z,969.88
2018-03-27T02:14:46.597Z,969.88
2018-03-27T02:15:47.146Z,969.92
2018-03-27T02:16:46.685Z,969.93
2018-03-27T02:17:46.728Z,969.95
2018-03-27T02:18:46.773Z,969.98
2018-03-27T02:19:46.817Z,969.97
2018-03-27T02:20:46.864Z,969.96
2018-03-27T02:21:46.937Z,969.97
2018-03-27T02:22:46.950Z,969.99
2018-03-27T02:23:46.995Z,969.96
2018-03-27T02:24:47.049Z,969.96
2018-03-27T02:25:47.085Z,969.96
2018-03-27T02:26:47.157Z,969.95
2018-03-27T02:27:47.172Z,969.94
2018-03-27T02:28:47.214Z,969.94
2018-03-27T02:29:47.255Z,969.96
2018-03-27T02:30:47.302Z,969.94
2018-03-27T02:31:47.368Z,969.97
2018-03-27T02:32:47.389Z,969.98
2018-03-27T02:33:47.433Z,969.99
2018-03-27T02:34:47.547Z,969.97
2018-03-27T02:35:47.520Z,969.97
2018-03-27T02:36:47.589Z,969.95
2018-03-27T02:37:47.632Z,969.97
2018-03-27T02:38:47.651Z,969.97
2018-03-27T02:39:47.696Z,969.97
2018-03-27T02:40:47.740Z,969.98
2018-03-27T02:41:47.813Z,969.95
2018-03-27T02:42:47.826Z,969.96
2018-03-27T02:43:47.872Z,969.96
2018-03-27T02:44:47.916Z,969.94
2018-03-27T02:45:47.961Z,969.95
2018-03-27T02:46:48.032Z,969.93
2018-03-27T02:47:48.044Z,969.97
2018-03-27T02:48:48.090Z,969.97
2018-03-27T02:49:48.135Z,969.95
2018-03-27T02:50:48.182Z,969.92
2018-03-27T02:51:48.250Z,969.94
2018-03-27T02:52:48.293Z,969.91
2018-03-27T02:53:48.314Z,969.88
2018-03-27T02:54:48.352Z,969.89
2018-03-27T02:55:48.407Z,969.87
2018-03-27T02:56:48.439Z,969.89
2018-03-27T02:57:48.517Z,969.90
2018-03-27T02:58:48.529Z,969.87
2018-03-27T02:59:48.573Z,969.88
2018-03-27T03:00:48.618Z,969.92
2018-03-27T03:01:48.662Z,969.91
2018-03-27T03:02:48.729Z,969.89
2018-03-27T03:03:48.749Z,969.95
2018-03-27T03:04:48.818Z,969.91
2018-03-27T03:05:48.857Z,969.92
2018-03-27T03:06:48.882Z,969.89
2018-03-27T03:07:48.923Z,969.90
2018-03-27T03:08:48.971Z,969.89
2018-03-27T03:09:49.037Z,969.94
2018-03-27T03:10:49.056Z,969.91
2018-03-27T03:11:49.098Z,969.90
2018-03-27T03:12:49.143Z,969.89
2018-03-27T03:13:49.188Z,969.90
2018-03-27T03:14:49.261Z,969.92
2018-03-27T03:15:49.277Z,969.94
2018-03-27T03:16:49.321Z,969.92
2018-03-27T03:17:50.094Z,969.93
2018-03-27T03:18:49.412Z,969.92
2018-03-27T03:19:49.476Z,969.90
2018-03-27T03:20:49.494Z,969.88
2018-03-27T03:21:49.563Z,969.89
2018-03-27T03:22:49.581Z,969.90
2018-03-27T03:23:49.625Z,969.91
2018-03-27T03:24:49.669Z,969.92
2018-03-27T03:25:49.742Z,969.91
2018-03-27T03:26:49.756Z,969.90
2018-03-27T03:27:49.836Z,969.86
2018-03-27T03:28:49.847Z,969.85
2018-03-27T03:29:49.888Z,969.88
2018-03-27T03:30:49.933Z,969.88
2018-03-27T03:31:49.974Z,969.90
2018-03-27T03:32:50.042Z,969.91
2018-03-27T03:33:50.065Z,969.90
2018-03-27T03:34:50.106Z,969.91
2018-03-27T03:35:50.156Z,969.90
2018-03-27T03:36:50.226Z,969.94
2018-03-27T03:37:50.242Z,969.94
2018-03-27T03:38:50.280Z,969.94
2018-03-27T03:39:50.328Z,969.94
2018-03-27T03:40:50.368Z,969.93
2018-03-27T03:41:50.439Z,969.91
2018-03-27T03:42:50.465Z,969.97
2018-03-27T03:43:50.508Z,969.94
2018-03-27T03:44:50.568Z,969.95
2018-03-27T03:45:50.587Z,969.93
2018-03-27T03:46:50.631Z,969.94
2018-03-27T03:47:50.677Z,969.96
2018-03-27T03:48:50.721Z,969.97
2018-03-27T03:49:50.809Z,970.00
2018-03-27T03:50:50.805Z,970.01
2018-03-27T03:51:50.851Z,970.00
2018-03-27T03:52:50.899Z,970.01
2018-03-27T03:53:50.940Z,970.05
2018-03-27T03:54:51.004Z,970.04
2018-03-27T03:55:51.027Z,970.06
2018-03-27T03:56:51.069Z,970.04
2018-03-27T03:57:51.116Z,970.08
2018-03-27T03:58:51.181Z,970.06
2018-03-27T03:59:51.200Z,970.06
2018-03-27T04:00:51.270Z,970.07
2018-03-27T04:01:51.292Z,970.09
2018-03-27T04:02:51.334Z,970.10
2018-03-27T04:03:51.378Z,970.08
2018-03-27T04:04:51.418Z,970.07
2018-03-27T04:05:51.492Z,970.07
2018-03-27T04:06:51.516Z,970.09
2018-03-27T04:07:51.550Z,970.10
2018-03-27T04:08:51.595Z,970.10
2018-03-27T04:09:51.662Z,970.11
2018-03-27T04:10:51.707Z,970.10
2018-03-27T04:11:51.726Z,970.09
2018-03-27T04:12:51.770Z,970.13
2018-03-27T04:13:51.815Z,970.12
2018-03-27T04:14:51.856Z,970.11
2018-03-27T04:15:51.933Z,970.13
2018-03-27T04:16:51.949Z,970.10
2018-03-27T04:17:51.987Z,970.14
2018-03-27T04:18:52.033Z,970.13
2018-03-27T04:19:52.138Z,970.14
2018-03-27T04:20:52.141Z,970.13
2018-03-27T04:21:52.188Z,970.11
2018-03-27T04:22:52.206Z,970.14
2018-03-27T04:23:52.247Z,970.12
2018-03-27T04:24:52.294Z,970.12
2018-03-27T04:25:52.337Z,970.15
2018-03-27T04:26:52.411Z,970.18
2018-03-27T04:27:52.426Z,970.12
2018-03-27T04:28:52.467Z,970.13
2018-03-27T04:29:52.511Z,970.17
2018-03-27T04:30:52.553Z,970.16
2018-03-27T04:31:52.635Z,970.15
2018-03-27T04:32:52.640Z,970.14
2018-03-27T04:33:52.697Z,970.16
2018-03-27T04:34:52.726Z,970.17
2018-03-27T04:35:52.773Z,970.23
2018-03-27T04:36:52.843Z,970.19
2018-03-27T04:37:52.856Z,970.19
2018-03-27T04:38:52.905Z,970.21
2018-03-27T04:39:52.943Z,970.22
2018-03-27T04:40:52.985Z,970.19
2018-03-27T04:41:53.063Z,970.15
2018-03-27T04:42:53.076Z,970.19
2018-03-27T04:43:53.116Z,970.18
2018-03-27T04:44:53.161Z,970.22
2018-03-27T04:45:53.205Z,970.19
2018-03-27T04:46:53.284Z,970.22
2018-03-27T04:47:53.288Z,970.24
2018-03-27T04:48:53.332Z,970.22
2018-03-27T04:49:53.376Z,970.23
2018-03-27T04:50:53.421Z,970.20
2018-03-27T04:51:53.503Z,970.21
2018-03-27T04:52:53.508Z,970.21
2018-03-27T04:53:53.556Z,970.21
2018-03-27T04:54:53.597Z,970.21
2018-03-27T04:55:53.644Z,970.24
2018-03-27T04:56:53.710Z,970.26
2018-03-27T04:57:53.721Z,970.23
2018-03-27T04:58:53.765Z,970.24
2018-03-27T04:59:53.810Z,970.22
2018-03-27T05:00:53.856Z,970.15
2018-03-27T05:01:53.919Z,970.13
2018-03-27T05:02:53.962Z,970.15
2018-03-27T05:03:53.983Z,970.13
2018-03-27T05:04:54.022Z,970.19
2018-03-27T05:05:54.068Z,970.21
2018-03-27T05:06:54.110Z,970.23
2018-03-27T05:07:54.184Z,970.21
2018-03-27T05:08:54.196Z,970.26
2018-03-27T05:09:54.248Z,970.28
2018-03-27T05:10:54.288Z,970.26
2018-03-27T05:11:54.328Z,970.22
2018-03-27T05:12:54.401Z,970.26
2018-03-27T05:13:54.410Z,970.28
2018-03-27T05:14:54.454Z,970.28
2018-03-27T05:15:54.497Z,970.32
2018-03-27T05:16:54.543Z,970.32
2018-03-27T05:17:54.609Z,970.33
2018-03-27T05:18:54.650Z,970.30
2018-03-27T05:19:54.669Z,970.33
2018-03-27T05:20:54.718Z,970.40
2018-03-27T05:21:54.757Z,970.42
2018-03-27T05:22:54.832Z,970.38
2018-03-27T05:23:54.840Z,970.37
2018-03-27T05:24:54.888Z,970.36
2018-03-27T05:25:54.930Z,970.34
2018-03-27T05:26:54.974Z,970.34
2018-03-27T05:27:55.036Z,970.35
2018-03-27T05:28:55.100Z,970.40
2018-03-27T05:29:55.101Z,970.39
2018-03-27T05:30:55.152Z,970.46
2018-03-27T05:31:55.193Z,970.45
2018-03-27T05:32:55.259Z,970.45
2018-03-27T05:33:55.308Z,970.51
2018-03-27T05:34:55.316Z,970.48
2018-03-27T05:35:55.358Z,970.47
2018-03-27T05:36:55.402Z,970.46
2018-03-27T05:37:55.448Z,970.45
2018-03-27T05:38:55.520Z,970.46
2018-03-27T05:39:55.535Z,970.42
2018-03-27T05:40:55.581Z,970.38
2018-03-27T05:41:55.620Z,970.36
2018-03-27T05:42:55.664Z,970.33
2018-03-27T05:43:55.760Z,970.30
2018-03-27T05:44:55.786Z,970.31
2018-03-27T05:45:55.792Z,970.31
2018-03-27T05:46:55.834Z,970.34
2018-03-27T05:47:55.877Z,970.33
2018-03-27T05:48:55.924Z,970.41
2018-03-27T05:49:56.003Z,970.37
2018-03-27T05:50:56.008Z,970.40
2018-03-27T05:51:56.050Z,970.42
2018-03-27T05:52:56.101Z,970.44
2018-03-27T05:53:56.138Z,970.47
2018-03-27T05:54:56.203Z,970.47
2018-03-27T05:55:56.270Z,970.45
2018-03-27T05:56:56.265Z,970.44
2018-03-27T05:57:56.308Z,970.46
2018-03-27T05:58:56.350Z,970.53
2018-03-27T05:59:56.393Z,970.53
2018-03-27T06:00:56.459Z,970.53
2018-03-27T06:01:56.478Z,970.56
2018-03-27T06:02:56.523Z,970.55
2018-03-27T06:03:56.564Z,970.60
2018-03-27T06:04:56.609Z,970.61
2018-03-27T06:05:56.672Z,970.58
2018-03-27T06:06:56.717Z,970.55
2018-03-27T06:07:56.738Z,970.54
2018-03-27T06:08:56.779Z,970.52
2018-03-27T06:09:56.823Z,970.55
2018-03-27T06:10:56.864Z,970.54
2018-03-27T06:11:56.934Z,970.51
2018-03-27T06:12:56.955Z,970.54
2018-03-27T06:13:57.005Z,970.53
2018-03-27T06:14:57.038Z,970.59
2018-03-27T06:15:57.080Z,970.60
2018-03-27T06:16:57.156Z,970.60
2018-03-27T06:17:57.166Z,970.67
2018-03-27T06:18:57.208Z,970.66
2018-03-27T06:19:57.251Z,970.66
2018-03-27T06:20:57.302Z,970.69
2018-03-27T06:21:57.373Z,970.68
2018-03-27T06:22:57.386Z,970.70
2018-03-27T06:23:57.424Z,970.69
2018-03-27T06:24:57.466Z,970.71
2018-03-27T06:25:57.510Z,970.73
2018-03-27T06:26:57.591Z,970.70
2018-03-27T06:27:57.598Z,970.72
2018-03-27T06:28:57.643Z,970.70
2018-03-27T06:29:57.684Z,970.76
2018-03-27T06:30:57.724Z,970.74
2018-03-27T06:31:57.809Z,970.77
2018-03-27T06:32:57.819Z,970.77
2018-03-27T06:33:57.855Z,970.77
2018-03-27T06:34:57.895Z,970.75
2018-03-27T06:35:57.940Z,970.71
2018-03-27T06:36:58.014Z,970.73
2018-03-27T06:37:58.032Z,970.73
2018-03-27T06:38:58.067Z,970.68
2018-03-27T06:39:58.111Z,970.73
2018-03-27T06:40:58.153Z,970.76
2018-03-27T06:41:58.225Z,970.78
2018-03-27T06:42:58.240Z,970.79
2018-03-27T06:43:58.283Z,970.80
2018-03-27T06:44:58.327Z,970.82
2018-03-27T06:45:58.369Z,970.83
2018-03-27T06:46:58.451Z,970.89
2018-03-27T06:47:58.454Z,970.87
2018-03-27T06:48:58.497Z,970.84
2018-03-27T06:49:58.546Z,970.88
2018-03-27T06:50:58.582Z,970.91
2018-03-27T06:51:58.653Z,970.88
2018-03-27T06:52:58.668Z,970.88
2018-03-27T06:53:58.710Z,970.88
2018-03-27T06:54:58.755Z,970.86
2018-03-27T06:55:58.805Z,970.87
2018-03-27T06:56:58.870Z,970.88
2018-03-27T06:57:58.886Z,970.88
2018-03-27T06:58:58.931Z,970.86
2018-03-27T06:59:58.967Z,970.83
2018-03-27T07:00:59.013Z,970.76
2018-03-27T07:01:59.098Z,970.74
2018-03-27T07:02:59.098Z,970.76
2018-03-27T07:03:59.140Z,970.72
2018-03-27T07:04:59.183Z,970.76
2018-03-27T07:05:59.240Z,970.74
2018-03-27T07:06:59.312Z,970.76
2018-03-27T07:07:59.314Z,970.80
2018-03-27T07:08:59.359Z,970.82
2018-03-27T07:09:59.427Z,970.85
2018-03-27T07:10:59.441Z,970.88
2018-03-27T07:11:59.554Z,970.90
2018-03-27T07:12:59.529Z,970.94
2018-03-27T07:13:59.701Z,970.97
2018-03-27T07:14:59.648Z,970.98
2018-03-27T07:15:59.659Z,971.01
2018-03-27T07:16:59.734Z,971.03
2018-03-27T07:17:59.772Z,971.01
2018-03-27T07:18:59.840Z,971.02
2018-03-27T07:19:59.831Z,971.06
2018-03-27T07:20:59.891Z,971.02
2018-03-27T07:21:59.947Z,971.03
2018-03-27T07:22:59.984Z,971.05
2018-03-27T07:24:00.004Z,971.06
2018-03-27T07:25:00.046Z,971.05
2018-03-27T07:26:00.090Z,971.05
2018-03-27T07:27:00.168Z,971.07
2018-03-27T07:28:00.266Z,971.05
2018-03-27T07:29:00.257Z,971.02
2018-03-27T07:30:00.263Z,971.07
2018-03-27T07:31:00.305Z,971.07
2018-03-27T07:32:00.348Z,971.11
2018-03-27T07:33:00.419Z,971.08
2018-03-27T07:34:00.460Z,971.07
2018-03-27T07:35:00.480Z,971.11
2018-03-27T07:36:00.525Z,971.05
2018-03-27T07:37:00.565Z,971.07
2018-03-27T07:38:00.611Z,971.09
2018-03-27T07:39:00.677Z,971.04
2018-03-27T07:40:00.721Z,971.06
2018-03-27T07:41:00.741Z,971.05
2018-03-27T07:42:00.786Z,971.04
2018-03-27T07:43:00.827Z,971.03
2018-03-27T07:44:00.870Z,970.99
2018-03-27T07:45:00.958Z,971.00
2018-03-27T07:46:00.970Z,971.02
2018-03-27T07:47:01.004Z,971.00
2018-03-27T07:48:01.799Z,971.03
2018-03-27T07:49:01.092Z,971.04
2018-03-27T07:50:01.181Z,971.07
2018-03-27T07:51:01.180Z,971.05
2018-03-27T07:52:01.224Z,971.03
2018-03-27T07:53:01.267Z,971.07
2018-03-27T07:54:01.313Z,971.05
2018-03-27T07:55:01.386Z,971.04
2018-03-27T07:56:01.405Z,971.04
2018-03-27T07:57:01.443Z,971.05
2018-03-27T07:58:01.493Z,971.06
2018-03-27T07:59:01.530Z,971.05
2018-03-27T08:00:01.613Z,971.05
2018-03-27T08:01:01.619Z,971.05
2018-03-27T08:02:01.672Z,971.04
2018-03-27T08:03:01.708Z,971.03
2018-03-27T08:04:01.765Z,971.02
2018-03-27T08:05:01.840Z,971.06
2018-03-27T08:06:01.847Z,971.08
2018-03-27T08:07:01.887Z,971.01
2018-03-27T08:08:01.931Z,971.02
2018-03-27T08:09:01.980Z,971.01
2018-03-27T08:10:02.050Z,971.04
2018-03-27T08:11:02.099Z,971.07
2018-03-27T08:12:02.142Z,971.00
2018-03-27T08:13:02.164Z,970.99
2018-03-27T08:14:02.200Z,970.99
2018-03-27T08:15:02.245Z,971.02
2018-03-27T08:16:02.289Z,971.02
2018-03-27T08:17:02.371Z,971.00
2018-03-27T08:18:02.384Z,971.02
2018-03-27T08:19:02.424Z,971.03
2018-03-27T08:20:02.469Z,970.99
2018-03-27T08:21:02.514Z,970.98
2018-03-27T08:22:02.593Z,971.03
2018-03-27T08:23:02.607Z,970.99
2018-03-27T08:24:02.706Z,971.02
2018-03-27T08:25:02.696Z,970.98
2018-03-27T08:26:02.746Z,970.97
2018-03-27T08:27:02.809Z,970.98
2018-03-27T08:28:02.860Z,971.01
2018-03-27T08:29:02.876Z,970.99
2018-03-27T08:30:02.922Z,971.00
2018-03-27T08:31:02.970Z,971.00
2018-03-27T08:32:03.012Z,971.03
2018-03-27T08:33:03.095Z,970.97
2018-03-27T08:34:03.106Z,970.92
2018-03-27T08:35:03.149Z,970.91
2018-03-27T08:36:03.195Z,970.91
2018-03-27T08:37:03.239Z,970.93
2018-03-27T08:38:03.309Z,970.92
2018-03-27T08:39:03.354Z,970.92
2018-03-27T08:40:03.378Z,970.93
2018-03-27T08:41:03.422Z,970.90
2018-03-27T08:42:03.468Z,970.91
2018-03-27T08:43:03.512Z,970.96
2018-03-27T08:44:03.585Z,970.94
2018-03-27T08:45:03.603Z,970.94
2018-03-27T08:46:03.651Z,970.95
2018-03-27T08:47:03.701Z,971.00
2018-03-27T08:48:03.741Z,970.99
2018-03-27T08:49:03.814Z,970.96
2018-03-27T08:50:03.834Z,970.96
2018-03-27T08:51:03.880Z,970.90
2018-03-27T08:52:03.929Z,970.87
2018-03-27T08:53:03.973Z,970.92
2018-03-27T08:54:04.055Z,970.87
2018-03-27T08:55:04.073Z,970.91
2018-03-27T08:56:04.147Z,970.88
2018-03-27T08:57:04.159Z,970.87
2018-03-27T08:58:04.208Z,970.89
2018-03-27T08:59:04.275Z,970.93
2018-03-27T09:00:04.337Z,970.96
2018-03-27T09:01:04.351Z,970.86
2018-03-27T09:02:04.400Z,970.86
2018-03-27T09:03:04.453Z,970.88
2018-03-27T09:04:04.491Z,970.86
2018-03-27T09:05:04.567Z,970.87
2018-03-27T09:06:04.584Z,970.84
2018-03-27T09:07:04.633Z,970.87
2018-03-27T09:08:04.683Z,970.85
2018-03-27T09:09:04.728Z,970.86
2018-03-27T09:10:04.815Z,970.89
2018-03-27T09:11:04.824Z,970.83
2018-03-27T09:12:04.871Z,970.82
2018-03-27T09:13:04.918Z,970.81
2018-03-27T09:14:04.966Z,970.80
2018-03-27T09:15:05.037Z,970.78
2018-03-27T09:16:05.085Z,970.82
2018-03-27T09:17:05.115Z,970.82
2018-03-27T09:18:05.163Z,970.76
2018-03-27T09:19:05.206Z,970.77
2018-03-27T09:20:05.255Z,970.78
2018-03-27T09:21:05.328Z,970.72
2018-03-27T09:22:05.351Z,970.70
2018-03-27T09:23:05.401Z,970.70
2018-03-27T09:24:05.449Z,970.66
2018-03-27T09:25:05.495Z,970.67
2018-03-27T09:26:05.588Z,970.65
2018-03-27T09:27:05.591Z,970.63
2018-03-27T09:28:05.649Z,970.66
2018-03-27T09:29:05.698Z,970.63
2018-03-27T09:30:05.740Z,970.66
2018-03-27T09:31:05.809Z,970.65
2018-03-27T09:32:05.835Z,970.66
2018-03-27T09:33:05.907Z,970.61
2018-03-27T09:34:05.932Z,970.60
2018-03-27T09:35:05.997Z,970.58
2018-03-27T09:36:06.029Z,970.58
2018-03-27T09:37:06.082Z,970.54
2018-03-27T09:38:06.148Z,970.57
2018-03-27T09:39:06.173Z,970.55
2018-03-27T09:40:06.222Z,970.50
2018-03-27T09:41:06.271Z,970.51
2018-03-27T09:42:06.323Z,970.50
2018-03-27T09:43:06.400Z,970.50
2018-03-27T09:44:06.418Z,970.49
2018-03-27T09:45:06.467Z,970.50
2018-03-27T09:46:06.517Z,970.44
2018-03-27T09:47:06.566Z,970.45
2018-03-27T09:48:06.644Z,970.47
2018-03-27T09:49:06.663Z,970.43
2018-03-27T09:50:06.717Z,970.41
2018-03-27T09:51:06.761Z,970.39
2018-03-27T09:52:06.812Z,970.35
2018-03-27T09:53:06.902Z,970.34
2018-03-27T09:54:06.909Z,970.36
2018-03-27T09:55:06.981Z,970.37
2018-03-27T09:56:07.008Z,970.32
2018-03-27T09:57:07.057Z,970.35
2018-03-27T09:58:07.110Z,970.36
2018-03-27T09:59:07.160Z,970.44
2018-03-27T10:00:07.227Z,970.41
2018-03-27T10:01:07.254Z,970.43
2018-03-27T10:02:07.302Z,970.40
2018-03-27T10:03:07.351Z,970.43
2018-03-27T10:04:07.425Z,970.43
2018-03-27T10:05:07.448Z,970.45
2018-03-27T10:06:07.524Z,970.38
2018-03-27T10:07:07.545Z,970.39
2018-03-27T10:08:07.596Z,970.40
2018-03-27T10:09:07.651Z,970.41
2018-03-27T10:10:07.696Z,970.38
2018-03-27T10:11:07.764Z,970.39
2018-03-27T10:12:07.792Z,970.39
2018-03-27T10:13:07.841Z,970.37
2018-03-27T10:14:07.890Z,970.40
2018-03-27T10:15:07.938Z,970.40
2018-03-27T10:16:08.019Z,970.38
2018-03-27T10:17:08.036Z,970.36
2018-03-27T10:18:08.087Z,970.38
2018-03-27T10:19:08.135Z,970.36
2018-03-27T10:20:08.193Z,970.32
2018-03-27T10:21:08.260Z,970.25
2018-03-27T10:22:08.308Z,970.29
2018-03-27T10:23:08.327Z,970.34
2018-03-27T10:24:08.379Z,970.31
2018-03-27T10:25:08.427Z,970.30
2018-03-27T10:26:08.506Z,970.38
2018-03-27T10:27:08.542Z,970.34
2018-03-27T10:28:08.579Z,970.36
2018-03-27T10:29:08.622Z,970.32
2018-03-27T10:30:08.681Z,970.35
2018-03-27T10:31:08.756Z,970.29
2018-03-27T10:32:08.770Z,970.27
2018-03-27T10:33:08.818Z,970.27
2018-03-27T10:34:08.867Z,970.28
2018-03-27T10:35:08.922Z,970.21
2018-03-27T10:36:08.996Z,970.16
2018-03-27T10:37:09.052Z,970.21
2018-03-27T10:38:09.060Z,970.23
2018-03-27T10:39:09.120Z,970.18
2018-03-27T10:40:09.162Z,970.22
2018-03-27T10:41:09.241Z,970.19
2018-03-27T10:42:09.309Z,970.20
2018-03-27T10:43:09.306Z,970.21
2018-03-27T10:44:09.357Z,970.21
2018-03-27T10:45:09.408Z,970.17
2018-03-27T10:46:09.455Z,970.14
2018-03-27T10:47:09.538Z,970.11
2018-03-27T10:48:09.561Z,970.11
2018-03-27T10:49:09.604Z,970.13
2018-03-27T10:50:09.650Z,970.10
2018-03-27T10:51:09.699Z,970.05
2018-03-27T10:52:09.811Z,970.06
2018-03-27T10:53:09.800Z,970.02
2018-03-27T10:54:09.849Z,970.02
2018-03-27T10:55:09.897Z,969.99
2018-03-27T10:56:09.947Z,969.99
2018-03-27T10:57:10.052Z,969.97
2018-03-27T10:58:10.050Z,969.97
2018-03-27T10:59:10.096Z,969.95
2018-03-27T11:00:10.145Z,969.96
2018-03-27T11:01:10.197Z,969.93
2018-03-27T11:02:10.274Z,969.93
2018-03-27T11:03:10.293Z,969.87
2018-03-27T11:04:10.383Z,969.88
2018-03-27T11:05:10.396Z,969.85
2018-03-27T11:06:10.496Z,969.84
2018-03-27T11:07:10.491Z,969.80
2018-03-27T11:08:10.547Z,969.78
2018-03-27T11:09:10.613Z,969.77
2018-03-27T11:10:10.645Z,969.72
2018-03-27T11:11:10.690Z,969.72
2018-03-27T11:12:10.742Z,969.72
2018-03-27T11:13:10.792Z,969.66
2018-03-27T11:14:10.868Z,969.72
2018-03-27T11:15:10.890Z,969.68
2018-03-27T11:16:10.942Z,969.63
2018-03-27T11:17:10.996Z,969.66
2018-03-27T11:18:11.045Z,969.60
2018-03-27T11:19:11.120Z,969.59
2018-03-27T11:20:11.145Z,969.57
2018-03-27T11:21:11.225Z,969.58
2018-03-27T11:22:11.243Z,969.56
2018-03-27T11:23:11.293Z,969.57
2018-03-27T11:24:11.372Z,969.52
2018-03-27T11:25:11.402Z,969.56
2018-03-27T11:26:11.442Z,969.51
2018-03-27T11:27:11.504Z,969.50
2018-03-27T11:28:11.543Z,969.46
2018-03-27T11:29:11.622Z,969.51
2018-03-27T11:30:11.646Z,969.43
2018-03-27T11:31:11.724Z,969.46
2018-03-27T11:32:11.743Z,969.45
2018-03-27T11:33:11.794Z,969.38
2018-03-27T11:34:11.851Z,969.41
2018-03-27T11:35:11.890Z,969.39
2018-03-27T11:36:11.967Z,969.42
2018-03-27T11:37:11.995Z,969.39
2018-03-27T11:38:12.041Z,969.39
2018-03-27T11:39:12.092Z,969.42
2018-03-27T11:40:12.166Z,969.36
2018-03-27T11:41:12.196Z,969.33
2018-03-27T11:42:12.266Z,969.27
2018-03-27T11:43:12.296Z,969.24
2018-03-27T11:44:12.346Z,969.24
2018-03-27T11:45:12.418Z,969.21
2018-03-27T11:46:12.446Z,969.18
2018-03-27T11:47:12.492Z,969.18
2018-03-27T11:48:12.544Z,969.15
2018-03-27T11:49:12.622Z,969.12
2018-03-27T11:50:12.648Z,969.08
2018-03-27T11:51:13.630Z,969.04
2018-03-27T11:52:12.747Z,969.03
2018-03-27T11:53:12.795Z,969.08
2018-03-27T11:54:12.887Z,969.05
2018-03-27T11:55:12.896Z,969.11
2018-03-27T11:56:12.948Z,969.12
2018-03-27T11:57:13.001Z,969.11
2018-03-27T11:58:13.048Z,969.07
2018-03-27T11:59:13.205Z,969.06
2018-03-27T12:00:13.156Z,969.00
2018-03-27T12:01:13.204Z,968.99
2018-03-27T12:02:13.253Z,968.98
2018-03-27T12:03:13.302Z,968.95
2018-03-27T12:04:13.384Z,968.92
2018-03-27T12:05:13.407Z,968.91
2018-03-27T12:06:13.452Z,968.88
2018-03-27T12:07:13.503Z,968.87
2018-03-27T12:08:13.553Z,968.86
2018-03-27T12:09:13.627Z,968.77
2018-03-27T12:10:13.656Z,968.82
2018-03-27T12:11:13.708Z,968.76
2018-03-27T12:12:13.762Z,968.74
2018-03-27T12:13:13.807Z,968.70
2018-03-27T12:14:13.883Z,968.69
2018-03-27T12:15:13.936Z,968.69
2018-03-27T12:16:13.960Z,968.70
2018-03-27T12:17:14.015Z,968.63
2018-03-27T12:18:14.070Z,968.64
2018-03-27T12:19:14.119Z,968.62
2018-03-27T12:20:14.210Z,968.57
2018-03-27T12:21:14.220Z,968.65
2018-03-27T12:22:14.269Z,968.60
2018-03-27T12:23:14.320Z,968.60
2018-03-27T12:24:14.372Z,968.54
2018-03-27T12:25:14.448Z,968.55
2018-03-27T12:26:14.497Z,968.49
2018-03-27T12:27:14.521Z,968.52
2018-03-27T12:28:14.572Z,968.50
2018-03-27T12:29:14.625Z,968.48